createdAt,value
2023-04-24T00:01:10.084Z,2.00
2023-04-24T00:03:38.254Z,2.30
2023-04-24T00:06:06.368Z,2.07
2023-04-24T00:08:33.469Z,1.90
2023-04-24T00:11:00.491Z,2.22
2023-04-24T00:13:29.300Z,2.03
2023-04-24T00:15:56.986Z,2.08
2023-04-24T00:18:23.612Z,2.38
2023-04-24T00:20:50.303Z,2.25
2023-04-24T00:23:17.076Z,2.40
2023-04-24T00:25:43.758Z,2.10
2023-04-24T00:28:10.551Z,2.30
2023-04-24T00:30:37.509Z,2.80
2023-04-24T00:33:04.322Z,2.10
2023-04-24T00:35:31.242Z,1.95
2023-04-24T00:37:57.936Z,2.47
2023-04-24T00:40:24.796Z,2.20
2023-04-24T00:42:51.591Z,2.10
2023-04-24T00:45:18.319Z,2.13
2023-04-24T00:47:46.422Z,2.17
2023-04-24T00:50:15.290Z,2.10
2023-04-24T00:52:42.135Z,2.60
2023-04-24T00:55:09.524Z,2.45
2023-04-24T00:57:36.636Z,2.38
2023-04-24T01:00:04.431Z,2.38
2023-04-24T01:02:31.442Z,2.35
2023-04-24T01:04:58.384Z,2.20
2023-04-24T01:07:28.606Z,2.08
2023-04-24T01:09:55.400Z,2.70
2023-04-24T01:12:22.255Z,2.40
2023-04-24T01:14:51.006Z,1.90
2023-04-24T01:17:17.992Z,2.28
2023-04-24T01:19:47.873Z,2.33
2023-04-24T01:22:15.374Z,2.30
2023-04-24T01:24:43.126Z,2.40
2023-04-24T01:27:12.985Z,2.38
2023-04-24T01:29:40.570Z,2.10
2023-04-24T01:32:08.353Z,2.25
2023-04-24T01:34:35.376Z,2.13
2023-04-24T01:37:02.237Z,2.30
2023-04-24T01:39:29.656Z,2.60
2023-04-24T01:41:57.205Z,2.38
2023-04-24T01:44:24.639Z,2.30
2023-04-24T01:46:51.631Z,2.15
2023-04-24T01:49:18.859Z,1.90
2023-04-24T01:51:46.169Z,2.00
2023-04-24T01:54:13.109Z,2.00
2023-04-24T01:56:43.843Z,2.20
2023-04-24T01:59:13.575Z,2.05
2023-04-24T02:01:40.715Z,2.22
2023-04-24T02:04:08.804Z,2.17
2023-04-24T02:06:36.328Z,1.90
2023-04-24T02:09:04.419Z,2.00
2023-04-24T02:11:31.580Z,2.33
2023-04-24T02:13:58.630Z,2.30
2023-04-24T02:16:25.912Z,2.30
2023-04-24T02:18:52.844Z,2.70
2023-04-24T02:21:19.562Z,2.10
2023-04-24T02:23:46.235Z,1.83
2023-04-24T02:26:13.921Z,2.25
2023-04-24T02:28:40.789Z,2.17
2023-04-24T02:31:07.890Z,2.45
2023-04-24T02:33:34.630Z,2.65
2023-04-24T02:36:01.381Z,2.25
2023-04-24T02:38:28.302Z,2.22
2023-04-24T02:40:55.208Z,2.47
2023-04-24T02:43:22.041Z,2.08
2023-04-24T02:45:48.760Z,2.30
2023-04-24T02:48:15.784Z,2.22
2023-04-24T02:50:42.450Z,2.22
2023-04-24T02:53:09.244Z,2.60
2023-04-24T02:55:36.675Z,2.60
2023-04-24T02:58:03.588Z,2.58
2023-04-24T03:00:30.989Z,2.35
2023-04-24T03:02:58.015Z,2.53
2023-04-24T03:05:24.947Z,2.15
2023-04-24T03:07:53.624Z,2.30
2023-04-24T03:10:23.723Z,2.33
2023-04-24T03:12:50.674Z,2.58
2023-04-24T03:15:18.852Z,2.63
2023-04-24T03:17:45.611Z,2.17
2023-04-24T03:20:12.697Z,1.90
2023-04-24T03:22:39.518Z,2.58
2023-04-24T03:25:10.336Z,2.57
2023-04-24T03:27:38.357Z,2.42
2023-04-24T03:30:16.624Z,2.33
2023-04-24T03:32:51.165Z,2.38
2023-04-24T03:35:23.552Z,2.60
2023-04-24T03:37:51.138Z,2.05
2023-04-24T03:40:37.995Z,2.65
2023-04-24T03:43:12.883Z,2.65
2023-04-24T03:45:39.684Z,2.28
2023-04-24T03:48:07.415Z,2.75
2023-04-24T03:50:34.725Z,2.35
2023-04-24T03:53:02.195Z,2.55
2023-04-24T03:55:36.226Z,2.60
2023-04-24T03:58:03.602Z,2.60
2023-04-24T04:00:34.342Z,2.25
2023-04-24T04:03:20.107Z,2.20
2023-04-24T04:05:47.294Z,2.22
2023-04-24T04:08:14.023Z,2.40
2023-04-24T04:10:40.838Z,2.60
2023-04-24T04:13:07.616Z,2.60
2023-04-24T04:15:35.744Z,2.17
2023-04-24T04:18:02.629Z,1.95
2023-04-24T04:20:29.995Z,2.83
2023-04-24T04:22:56.903Z,2.45
2023-04-24T04:25:35.340Z,2.42
2023-04-24T04:28:03.018Z,2.63
2023-04-24T04:30:33.186Z,2.30
2023-04-24T04:33:03.641Z,2.25
2023-04-24T04:35:31.956Z,2.42
2023-04-24T04:37:59.837Z,2.60
2023-04-24T04:40:27.379Z,2.40
2023-04-24T04:42:59.282Z,2.33
2023-04-24T04:45:29.512Z,2.35
2023-04-24T04:48:34.879Z,2.55
2023-04-24T04:51:03.377Z,2.25
2023-04-24T04:53:30.408Z,2.20
2023-04-24T04:55:57.445Z,2.53
2023-04-24T04:58:28.545Z,2.15
2023-04-24T05:00:58.619Z,2.10
2023-04-24T05:03:37.205Z,2.35
2023-04-24T05:06:08.087Z,2.50
2023-04-24T05:08:38.097Z,2.25
2023-04-24T05:11:08.026Z,2.20
2023-04-24T05:13:40.708Z,2.03
2023-04-24T05:16:22.784Z,3.50
2023-04-24T05:18:52.319Z,2.50
2023-04-24T05:21:23.610Z,2.45
2023-04-24T05:23:52.234Z,2.40
2023-04-24T05:26:31.132Z,2.33
2023-04-24T05:28:59.978Z,2.40
2023-04-24T05:31:26.864Z,1.98
2023-04-24T05:33:53.590Z,2.40
2023-04-24T05:36:20.612Z,2.10
2023-04-24T05:38:47.388Z,2.33
2023-04-24T05:41:14.860Z,2.72
2023-04-24T05:43:42.097Z,2.42
2023-04-24T05:46:08.708Z,2.45
2023-04-24T05:48:35.576Z,2.40
2023-04-24T05:51:04.353Z,2.40
2023-04-24T05:53:31.524Z,2.65
2023-04-24T05:55:58.484Z,2.88
2023-04-24T05:58:25.502Z,2.80
2023-04-24T06:00:52.389Z,2.65
2023-04-24T06:03:19.403Z,2.83
2023-04-24T06:05:48.272Z,2.30
2023-04-24T06:08:14.955Z,2.47
2023-04-24T06:10:43.947Z,2.13
2023-04-24T06:13:12.151Z,2.83
2023-04-24T06:15:43.375Z,2.90
2023-04-24T06:18:20.421Z,2.95
2023-04-24T06:20:48.774Z,2.65
2023-04-24T06:23:15.646Z,2.35
2023-04-24T06:25:42.558Z,2.30
2023-04-24T06:28:11.965Z,2.60
2023-04-24T06:30:38.636Z,3.10
2023-04-24T06:33:18.765Z,2.92
2023-04-24T06:35:46.658Z,2.53
2023-04-24T06:38:13.242Z,2.63
2023-04-24T06:40:40.263Z,3.00
2023-04-24T06:43:07.343Z,3.47
2023-04-24T06:45:34.238Z,4.00
2023-04-24T06:48:01.071Z,5.43
2023-04-24T06:50:27.862Z,6.82
2023-04-24T06:52:54.582Z,7.93
2023-04-24T06:55:21.533Z,9.13
2023-04-24T06:57:48.385Z,10.85
2023-04-24T07:00:15.494Z,11.40
2023-04-24T07:02:42.252Z,11.98
2023-04-24T07:05:09.457Z,13.45
2023-04-24T07:07:38.955Z,14.68
2023-04-24T07:10:06.708Z,17.20
2023-04-24T07:12:34.026Z,17.13
2023-04-24T07:15:01.605Z,18.52
2023-04-24T07:17:28.420Z,20.30
2023-04-24T07:19:55.147Z,21.63
2023-04-24T07:22:21.863Z,26.10
2023-04-24T07:24:48.644Z,24.85
2023-04-24T07:27:16.271Z,28.67
2023-04-24T07:29:43.925Z,30.38
2023-04-24T07:32:11.422Z,33.63
2023-04-24T07:34:38.328Z,34.10
2023-04-24T07:37:05.382Z,35.33
2023-04-24T07:39:32.670Z,36.42
2023-04-24T07:42:00.452Z,38.08
2023-04-24T07:44:27.362Z,39.30
2023-04-24T07:46:54.541Z,39.70
2023-04-24T07:49:21.160Z,42.35
2023-04-24T07:51:47.894Z,40.55
2023-04-24T07:54:14.710Z,40.38
2023-04-24T07:56:43.999Z,41.83
2023-04-24T08:01:38.056Z,42.33
2023-04-24T08:04:04.887Z,43.45
2023-04-24T08:06:32.940Z,43.60
2023-04-24T08:09:00.763Z,43.90
2023-04-24T08:11:28.257Z,42.90
2023-04-24T08:13:55.978Z,41.67
2023-04-24T08:16:24.940Z,43.00
2023-04-24T08:18:52.214Z,41.03
2023-04-24T08:21:19.855Z,42.47
2023-04-24T08:23:47.171Z,41.58
2023-04-24T08:26:14.988Z,42.30
2023-04-24T08:28:41.653Z,41.20
2023-04-24T08:31:08.351Z,39.28
2023-04-24T08:33:37.844Z,41.47
2023-04-24T08:36:06.098Z,40.05
2023-04-24T08:38:33.083Z,38.40
2023-04-24T08:41:01.251Z,38.40
2023-04-24T08:43:29.220Z,36.75
2023-04-24T08:45:57.768Z,38.50
2023-04-24T08:48:30.870Z,36.35
2023-04-24T08:51:00.123Z,35.15
2023-04-24T08:53:28.097Z,36.72
2023-04-24T08:55:57.743Z,34.33
2023-04-24T08:58:27.539Z,34.47
2023-04-24T09:00:56.982Z,33.17
2023-04-24T09:03:24.305Z,33.35
2023-04-24T09:05:51.667Z,32.40
2023-04-24T09:08:20.022Z,32.30
2023-04-24T09:10:49.076Z,30.97
2023-04-24T09:13:17.824Z,30.45
2023-04-24T09:15:44.664Z,31.42
2023-04-24T09:18:11.461Z,31.48
2023-04-24T09:21:00.212Z,31.65
2023-04-24T09:23:30.508Z,30.40
2023-04-24T09:25:58.349Z,30.42
2023-04-24T09:28:31.463Z,29.10
2023-04-24T09:31:05.502Z,30.73
2023-04-24T09:33:32.393Z,29.27
2023-04-24T09:36:00.204Z,29.27
2023-04-24T09:38:37.770Z,28.70
2023-04-24T09:41:07.007Z,28.70
2023-04-24T09:43:35.302Z,26.63
2023-04-24T09:46:07.570Z,27.67
2023-04-24T09:48:36.436Z,26.35
2023-04-24T09:51:05.179Z,26.23
2023-04-24T09:53:32.231Z,26.48
2023-04-24T09:56:09.310Z,25.40
2023-04-24T09:58:37.512Z,24.02
2023-04-24T10:01:04.740Z,23.27
2023-04-24T10:03:33.549Z,23.75
2023-04-24T10:06:01.978Z,24.15
2023-04-24T10:08:35.561Z,23.20
2023-04-24T10:11:03.059Z,23.13
2023-04-24T10:13:29.969Z,22.50
2023-04-24T10:15:57.447Z,21.63
2023-04-24T10:18:26.212Z,21.75
2023-04-24T10:20:55.877Z,21.35
2023-04-24T10:23:24.213Z,21.63
2023-04-24T10:25:52.237Z,21.70
2023-04-24T10:28:20.306Z,22.42
2023-04-24T10:30:47.520Z,21.95
2023-04-24T10:33:15.223Z,20.52
2023-04-24T10:35:46.857Z,21.50
2023-04-24T10:38:16.766Z,22.00
2023-04-24T10:40:45.110Z,22.05
2023-04-24T10:43:17.100Z,22.08
2023-04-24T10:46:02.325Z,21.70
2023-04-24T10:48:29.042Z,21.83
2023-04-24T10:50:55.894Z,22.15
2023-04-24T10:53:24.582Z,21.60
2023-04-24T10:56:14.481Z,21.73
2023-04-24T10:58:49.144Z,21.05
2023-04-24T11:01:36.079Z,20.55
2023-04-24T11:04:04.709Z,20.92
2023-04-24T11:06:34.132Z,20.48
2023-04-24T11:11:34.077Z,20.33
2023-04-24T11:14:01.077Z,19.38
2023-04-24T11:16:36.319Z,19.10
2023-04-24T11:19:16.313Z,18.35
2023-04-24T11:21:43.306Z,19.50
2023-04-24T11:24:30.164Z,18.13
2023-04-24T11:27:03.426Z,18.90
2023-04-24T11:29:54.315Z,18.40
2023-04-24T11:32:37.448Z,17.73
2023-04-24T11:35:22.073Z,17.50
2023-04-24T11:38:18.842Z,16.40
2023-04-24T11:40:41.229Z,18.00
2023-04-24T11:43:09.759Z,16.63
2023-04-24T11:45:36.676Z,17.85
2023-04-24T11:48:04.617Z,17.13
2023-04-24T11:50:31.722Z,16.80
2023-04-24T11:52:58.685Z,17.40
2023-04-24T11:55:28.328Z,17.40
2023-04-24T11:58:00.533Z,17.05
2023-04-24T12:00:29.062Z,16.92
2023-04-24T12:03:10.334Z,19.47
2023-04-24T12:05:37.925Z,17.38
2023-04-24T12:08:04.983Z,17.40
2023-04-24T12:10:33.585Z,18.23
2023-04-24T12:13:01.404Z,20.38
2023-04-24T12:15:28.928Z,18.05
2023-04-24T12:17:56.751Z,20.55
2023-04-24T12:20:29.979Z,19.10
2023-04-24T12:22:58.158Z,19.85
2023-04-24T12:25:27.640Z,21.88
2023-04-24T12:28:13.672Z,22.25
2023-04-24T12:30:50.126Z,23.02
2023-04-24T12:33:21.001Z,24.45
2023-04-24T12:35:49.772Z,24.35
2023-04-24T12:38:17.203Z,27.83
2023-04-24T12:40:44.728Z,28.90
2023-04-24T12:43:15.974Z,33.30
2023-04-24T12:45:42.719Z,32.90
2023-04-24T12:48:09.371Z,37.60
2023-04-24T12:50:36.134Z,49.05
2023-04-24T12:53:02.869Z,59.97
2023-04-24T12:55:29.599Z,71.90
2023-04-24T12:57:57.085Z,81.78
2023-04-24T13:00:23.951Z,89.07
2023-04-24T13:02:50.827Z,97.25
2023-04-24T13:05:18.092Z,96.78
2023-04-24T13:07:44.838Z,100.95
2023-04-24T13:10:11.800Z,96.82
2023-04-24T13:12:39.749Z,103.93
2023-04-24T13:15:07.320Z,104.80
2023-04-24T13:17:34.321Z,109.03
2023-04-24T13:20:01.008Z,115.93
2023-04-24T13:22:28.318Z,120.25
2023-04-24T13:24:55.580Z,122.70
2023-04-24T13:27:22.303Z,127.97
2023-04-24T13:29:48.950Z,125.85
2023-04-24T13:32:16.083Z,130.18
2023-04-24T13:34:42.861Z,133.60
2023-04-24T13:37:09.603Z,136.73
2023-04-24T13:39:36.410Z,136.05
2023-04-24T13:42:04.882Z,138.07
2023-04-24T13:44:32.612Z,125.25
2023-04-24T13:46:59.668Z,133.77
2023-04-24T13:49:27.604Z,131.18
2023-04-24T13:51:56.115Z,134.32
2023-04-24T13:54:24.479Z,136.37
2023-04-24T13:56:52.827Z,139.00
2023-04-24T13:59:20.933Z,137.43
2023-04-24T14:01:48.722Z,139.07
2023-04-24T14:04:15.829Z,139.90
2023-04-24T14:06:42.680Z,137.32
2023-04-24T14:09:09.491Z,131.07
2023-04-24T14:11:36.468Z,132.32
2023-04-24T14:14:03.912Z,131.40
2023-04-24T14:16:31.842Z,127.78
2023-04-24T14:18:59.001Z,127.47
2023-04-24T14:21:25.705Z,128.23
2023-04-24T14:23:52.322Z,121.75
2023-04-24T14:26:19.001Z,122.80
2023-04-24T14:28:45.641Z,119.82
2023-04-24T14:31:12.439Z,119.25
2023-04-24T14:33:39.114Z,115.72
2023-04-24T14:36:06.736Z,108.22
2023-04-24T14:38:33.905Z,108.88
2023-04-24T14:43:31.142Z,105.30
2023-04-24T14:45:57.836Z,100.78
2023-04-24T14:48:24.518Z,101.32
2023-04-24T14:50:51.464Z,98.18
2023-04-24T14:53:18.471Z,96.80
2023-04-24T14:55:45.553Z,93.03
2023-04-24T14:58:12.290Z,94.80
2023-04-24T15:00:39.231Z,89.93
2023-04-24T15:03:06.082Z,93.28
2023-04-24T15:05:33.486Z,89.05
2023-04-24T15:08:00.573Z,85.40
2023-04-24T15:10:27.344Z,86.22
2023-04-24T15:12:54.084Z,82.97
2023-04-24T15:15:20.749Z,82.32
2023-04-24T15:17:47.407Z,82.03
2023-04-24T15:20:14.211Z,78.70
2023-04-24T15:22:41.131Z,75.68
2023-04-24T15:25:08.403Z,77.47
2023-04-24T15:27:45.906Z,75.35
2023-04-24T15:30:14.357Z,73.43
2023-04-24T15:32:41.377Z,70.33
2023-04-24T15:35:10.155Z,69.57
2023-04-24T15:37:38.990Z,70.32
2023-04-24T15:40:08.286Z,67.20
2023-04-24T15:42:35.843Z,66.60
2023-04-24T15:45:02.665Z,66.38
2023-04-24T15:47:29.405Z,66.70
2023-04-24T15:49:56.106Z,64.55
2023-04-24T15:52:22.977Z,62.42
2023-04-24T15:54:50.130Z,62.55
2023-04-24T15:57:17.072Z,62.58
2023-04-24T15:59:45.388Z,57.83
2023-04-24T16:02:19.386Z,57.42
2023-04-24T16:04:51.018Z,58.15
2023-04-24T16:07:20.902Z,57.47
2023-04-24T16:09:47.714Z,55.13
2023-04-24T16:12:14.729Z,54.45
2023-04-24T16:14:42.284Z,50.58
2023-04-24T16:17:09.441Z,50.80
2023-04-24T16:19:36.375Z,51.85
2023-04-24T16:22:04.185Z,50.42
2023-04-24T16:24:31.323Z,48.33
2023-04-24T16:26:58.250Z,47.55
2023-04-24T16:29:25.084Z,46.88
2023-04-24T16:31:51.920Z,47.03
2023-04-24T16:34:18.934Z,45.67
2023-04-24T16:36:45.753Z,44.80
2023-04-24T16:39:13.221Z,45.60
2023-04-24T16:41:40.300Z,41.80
2023-04-24T16:44:07.438Z,41.25
2023-04-24T16:46:34.654Z,41.90
2023-04-24T16:49:01.603Z,41.85
2023-04-24T16:51:29.097Z,40.38
2023-04-24T16:53:56.209Z,40.33
2023-04-24T16:56:23.233Z,38.08
2023-04-24T16:58:50.862Z,37.45
2023-04-24T17:01:18.057Z,36.53
2023-04-24T17:03:45.219Z,37.90
2023-04-24T17:06:12.717Z,36.20
2023-04-24T17:08:39.394Z,36.35
2023-04-24T17:11:09.188Z,34.95
2023-04-24T17:13:36.151Z,34.10
2023-04-24T17:16:03.051Z,33.08
2023-04-24T17:18:29.836Z,33.65
2023-04-24T17:20:56.696Z,32.78
2023-04-24T17:23:23.542Z,31.48
2023-04-24T17:25:50.336Z,31.50
2023-04-24T17:28:29.368Z,32.35
2023-04-24T17:30:58.564Z,30.08
2023-04-24T17:35:53.092Z,29.70
2023-04-24T17:38:20.933Z,29.13
2023-04-24T17:40:47.668Z,27.63
2023-04-24T17:43:18.074Z,27.83
2023-04-24T17:45:49.834Z,28.15
2023-04-24T17:48:18.182Z,26.92
2023-04-24T17:50:46.004Z,27.02
2023-04-24T17:53:12.720Z,27.65
2023-04-24T17:55:40.529Z,25.85
2023-04-24T17:58:07.946Z,24.85
2023-04-24T18:00:35.300Z,26.98
2023-04-24T18:03:03.686Z,25.38
2023-04-24T18:05:31.832Z,24.77
2023-04-24T18:07:59.203Z,24.02
2023-04-24T18:10:27.913Z,23.70
2023-04-24T18:12:55.055Z,23.63
2023-04-24T18:15:22.070Z,24.20
2023-04-24T18:17:49.136Z,22.05
2023-04-24T18:20:17.791Z,22.08
2023-04-24T18:22:44.805Z,22.10
2023-04-24T18:25:12.174Z,20.90
2023-04-24T18:27:40.150Z,20.77
2023-04-24T18:30:08.658Z,20.10
2023-04-24T18:32:35.843Z,21.03
2023-04-24T18:35:03.443Z,19.83
2023-04-24T18:37:32.860Z,19.83
2023-04-24T18:42:26.029Z,19.95
2023-04-24T18:45:02.562Z,19.92
2023-04-24T18:47:29.327Z,18.98
2023-04-24T18:49:56.451Z,18.98
2023-04-24T18:52:24.245Z,19.02
2023-04-24T18:54:51.229Z,18.33
2023-04-24T18:57:18.000Z,18.55
2023-04-24T18:59:44.794Z,18.23
2023-04-24T19:02:11.854Z,17.30
2023-04-24T19:04:38.653Z,18.50
2023-04-24T19:07:05.548Z,17.80
2023-04-24T19:09:32.358Z,17.98
2023-04-24T19:12:00.194Z,16.67
2023-04-24T19:14:27.005Z,16.67
2023-04-24T19:16:54.011Z,16.02
2023-04-24T19:19:21.730Z,17.05
2023-04-24T19:21:50.121Z,16.08
2023-04-24T19:24:19.085Z,15.60
2023-04-24T19:26:46.385Z,16.15
2023-04-24T19:29:13.202Z,15.48
2023-04-24T19:31:40.195Z,15.93
2023-04-24T19:34:06.985Z,15.48
2023-04-24T19:36:34.046Z,15.52
2023-04-24T19:39:00.988Z,15.00
2023-04-24T19:41:27.717Z,14.60
2023-04-24T19:43:54.495Z,14.30
2023-04-24T19:46:21.402Z,14.20
2023-04-24T19:48:48.352Z,13.65
2023-04-24T19:51:15.486Z,13.02
2023-04-24T19:53:43.558Z,13.48
2023-04-24T19:56:10.587Z,14.02
2023-04-24T19:58:37.218Z,13.65
2023-04-24T20:01:05.927Z,12.48
2023-04-24T20:03:34.010Z,12.88
2023-04-24T20:06:01.485Z,12.57
2023-04-24T20:08:28.226Z,11.95
2023-04-24T20:10:57.818Z,11.75
2023-04-24T20:13:27.550Z,11.43
2023-04-24T20:18:21.366Z,11.30
2023-04-24T20:20:48.090Z,11.25
2023-04-24T20:23:14.806Z,10.98
2023-04-24T20:25:41.436Z,10.65
2023-04-24T20:28:08.140Z,10.35
2023-04-24T20:30:34.861Z,10.95
2023-04-24T20:33:01.692Z,10.70
2023-04-24T20:35:28.477Z,10.27
2023-04-24T20:37:55.231Z,9.93
2023-04-24T20:40:22.030Z,10.10
2023-04-24T20:42:49.824Z,9.30
2023-04-24T20:45:17.913Z,10.10
2023-04-24T20:47:44.771Z,9.20
2023-04-24T20:50:12.150Z,10.05
2023-04-24T20:52:39.057Z,8.88
2023-04-24T20:55:06.882Z,8.75
2023-04-24T20:57:34.013Z,9.32
2023-04-24T21:00:04.186Z,9.20
2023-04-24T21:02:31.070Z,8.65
2023-04-24T21:04:57.787Z,8.90
2023-04-24T21:07:24.450Z,8.68
2023-04-24T21:09:51.211Z,8.73
2023-04-24T21:12:18.081Z,8.38
2023-04-24T21:14:44.919Z,7.75
2023-04-24T21:17:11.736Z,8.52
2023-04-24T21:19:38.607Z,8.07
2023-04-24T21:22:05.505Z,7.85
2023-04-24T21:24:32.273Z,7.57
2023-04-24T21:26:59.196Z,7.65
2023-04-24T21:29:26.351Z,7.68
2023-04-24T21:31:53.304Z,7.45
2023-04-24T21:34:19.929Z,7.68
2023-04-24T21:36:47.814Z,7.53
2023-04-24T21:39:14.719Z,6.65
2023-04-24T21:41:41.712Z,6.55
2023-04-24T21:44:08.909Z,6.38
2023-04-24T21:46:36.145Z,6.88
2023-04-24T21:49:02.925Z,6.90
2023-04-24T21:51:29.523Z,7.10
2023-04-24T21:53:56.330Z,6.20
2023-04-24T21:56:23.207Z,6.50
2023-04-24T21:58:50.020Z,6.40
2023-04-24T22:01:16.931Z,6.55
2023-04-24T22:03:43.719Z,6.53
2023-04-24T22:06:10.679Z,6.18
2023-04-24T22:08:37.511Z,6.82
2023-04-24T22:11:07.208Z,6.07
2023-04-24T22:13:37.900Z,6.43
2023-04-24T22:16:04.806Z,5.97
2023-04-24T22:18:46.081Z,5.60
2023-04-24T22:21:13.919Z,5.97
2023-04-24T22:23:40.792Z,5.63
2023-04-24T22:26:07.542Z,5.82
2023-04-24T22:28:34.320Z,6.18
2023-04-24T22:31:01.213Z,5.90
2023-04-24T22:33:28.156Z,5.53
2023-04-24T22:35:55.239Z,5.60
2023-04-24T22:38:21.846Z,5.38
2023-04-24T22:40:48.974Z,5.55
2023-04-24T22:43:17.401Z,5.18
2023-04-24T22:45:43.986Z,5.60
2023-04-24T22:48:10.714Z,5.15
2023-04-24T22:50:37.518Z,5.63
2023-04-24T22:53:04.145Z,5.20
2023-04-24T22:55:31.415Z,4.82
2023-04-24T22:57:58.329Z,4.97
2023-04-24T23:00:24.994Z,4.80
2023-04-24T23:02:51.816Z,4.70
2023-04-24T23:05:21.374Z,5.13
2023-04-24T23:10:14.662Z,5.00
2023-04-24T23:12:41.483Z,5.28
2023-04-24T23:15:09.783Z,4.90
2023-04-24T23:17:36.389Z,4.25
2023-04-24T23:20:04.280Z,4.55
2023-04-24T23:22:31.267Z,4.85
2023-04-24T23:24:57.933Z,4.28
2023-04-24T23:27:24.595Z,4.80
2023-04-24T23:29:51.922Z,4.40
2023-04-24T23:32:18.833Z,4.30
2023-04-24T23:34:45.792Z,4.68
2023-04-24T23:37:12.693Z,4.22
2023-04-24T23:39:39.537Z,4.07
2023-04-24T23:42:07.834Z,4.18
2023-04-24T23:44:35.050Z,3.85
2023-04-24T23:47:01.742Z,4.10
2023-04-24T23:49:28.314Z,4.28
2023-04-24T23:51:56.269Z,4.25
2023-04-24T23:54:22.939Z,4.00
2023-04-24T23:56:50.171Z,4.03
2023-04-24T23:59:16.835Z,4.18
